Time;durP1;ratioP1;P1;durP2;ratioP2;P2;SDS_P1;SDS_P2;PMS_P1;PMS_P2;Temp;Humidity;BMP_temperature;BMP_pressure;BME280_temperature;BME280_humidity;BME280_pressure;Samples;Min_cycle;Max_cycle;Signal;HPM_P1;HPM_P2
2021/08/23 00:00:07;;;;;;;1999.90;999.90;;;;;;;22.08;77.24;98161.44;5093199;28;20083;-67
2021/08/23 00:02:35;;;;;;;1999.90;999.90;;;;;;;22.22;77.57;98163.38;5092127;28;20079;-66
2021/08/23 00:05:02;;;;;;;1999.90;999.90;;;;;;;22.21;77.52;98167.44;5093138;28;20040;-66
2021/08/23 00:07:29;;;;;;;1999.90;999.90;;;;;;;22.38;76.34;98171.41;5093280;28;20102;-66
2021/08/23 00:09:55;;;;;;;1999.90;999.90;;;;;;;22.05;77.11;98178.31;5092351;28;20043;-66
2021/08/23 00:12:24;;;;;;;1999.90;999.90;;;;;;;21.80;78.41;98180.00;5092291;28;20044;-66
2021/08/23 00:14:51;;;;;;;1999.90;999.90;;;;;;;22.12;77.29;98165.06;5092264;28;20483;-67
2021/08/23 00:17:18;;;;;;;1999.90;999.90;;;;;;;22.02;77.65;98159.44;5091630;28;20101;-67
2021/08/23 00:19:45;;;;;;;1999.90;999.90;;;;;;;22.09;77.37;98157.41;5091879;28;20043;-66
2021/08/23 00:22:20;;;;;;;1999.90;999.90;;;;;;;21.96;77.47;98159.88;5092451;28;20101;-66
2021/08/23 00:24:48;;;;;;;1999.90;999.90;;;;;;;21.76;78.36;98159.50;5092769;28;20367;-66
2021/08/23 00:27:15;;;;;;;1999.90;999.90;;;;;;;22.04;77.33;98160.66;5091578;28;20048;-66
2021/08/23 00:29:42;;;;;;;1999.90;999.90;;;;;;;21.85;77.72;98153.47;5104003;28;20051;-67
2021/08/23 00:32:09;;;;;;;1999.90;999.90;;;;;;;21.86;78.08;98149.44;5091812;28;20364;-66
2021/08/23 00:34:36;;;;;;;1999.90;999.90;;;;;;;22.04;77.32;98151.41;5091211;28;20055;-66
2021/08/23 00:37:06;;;;;;;1999.90;999.90;;;;;;;22.13;77.15;98144.09;5091985;28;20440;-66
2021/08/23 00:39:35;;;;;;;1999.90;999.90;;;;;;;22.25;76.96;98137.22;5074684;28;20354;-66
2021/08/23 00:42:03;;;;;;;1999.90;999.90;;;;;;;21.90;77.72;98144.63;5097121;28;20104;-67
2021/08/23 00:44:31;;;;;;;1999.90;999.90;;;;;;;22.24;76.90;98148.91;5096538;28;20089;-66
2021/08/23 00:47:01;;;;;;;1999.90;999.90;;;;;;;22.29;76.76;98156.94;5091717;28;20048;-66
2021/08/23 00:49:29;;;;;;;1999.90;999.90;;;;;;;22.43;76.59;98148.44;5091748;28;20048;-66
2021/08/23 00:51:56;;;;;;;1999.90;999.90;;;;;;;22.09;77.54;98148.16;5085492;28;20129;-67
2021/08/23 00:54:23;;;;;;;1999.90;999.90;;;;;;;22.18;77.66;98151.34;5080726;28;20047;-66
2021/08/23 00:56:50;;;;;;;1999.90;999.90;;;;;;;21.79;78.88;98152.28;5092262;28;20133;-66
2021/08/23 00:59:26;;;;;;;1999.90;999.90;;;;;;;21.74;79.64;98147.88;5091636;28;20060;-66
2021/08/23 01:02:01;;;;;;;1999.90;999.90;;;;;;;21.90;79.00;98153.06;5090606;28;20044;-66
2021/08/23 01:04:39;;;;;;;1999.90;999.90;;;;;;;21.68;80.23;98155.13;5091430;28;20067;-66
2021/08/23 01:07:10;;;;;;;1999.90;999.90;;;;;;;21.92;79.34;98158.28;5092262;28;20109;-66
2021/08/23 01:09:39;;;;;;;1999.90;999.90;;;;;;;21.44;81.50;98153.94;5090948;28;20116;-66
2021/08/23 01:12:08;;;;;;;1999.90;999.90;;;;;;;21.40;82.43;98142.66;5091552;28;20048;-66
2021/08/23 01:14:37;;;;;;;1999.90;999.90;;;;;;;20.69;84.89;98124.63;5091775;28;20056;-66
2021/08/23 01:17:04;;;;;;;1999.90;999.90;;;;;;;21.13;84.01;98135.88;5091673;28;20048;-66
2021/08/23 01:19:31;;;;;;;1999.90;999.90;;;;;;;21.17;83.63;98131.03;5091282;28;20407;-66
2021/08/23 01:22:03;;;;;;;1999.90;999.90;;;;;;;21.46;82.68;98131.81;5091847;28;20040;-66
2021/08/23 01:24:32;;;;;;;1999.90;999.90;;;;;;;21.38;83.24;98131.03;5091601;28;20044;-66
2021/08/23 01:27:03;;;;;;;1999.90;999.90;;;;;;;21.66;82.42;98132.22;5090887;28;20052;-66
2021/08/23 01:29:51;;;;;;;1999.90;999.90;;;;;;;21.78;82.44;98128.19;5094852;28;19919;-66
2021/08/23 01:32:21;;;;;;;1999.90;999.90;;;;;;;21.92;81.69;98124.50;5080308;28;20290;-66
2021/08/23 01:34:50;;;;;;;1999.90;999.90;;;;;;;22.19;80.54;98132.44;5096308;28;20048;-66
2021/08/23 01:37:17;;;;;;;1999.90;999.90;;;;;;;22.18;80.92;98140.06;5094766;28;20109;-66
2021/08/23 01:39:45;;;;;;;1999.90;999.90;;;;;;;22.26;80.48;98140.88;5105258;28;20044;-66
2021/08/23 01:42:12;;;;;;;1999.90;999.90;;;;;;;22.34;80.60;98134.00;5095032;28;20085;-66
2021/08/23 01:44:40;;;;;;;1999.90;999.90;;;;;;;22.19;81.22;98138.06;5092846;28;20040;-66
2021/08/23 01:47:07;;;;;;;1999.90;999.90;;;;;;;22.12;81.89;98122.00;5094290;28;20052;-66
2021/08/23 01:49:34;;;;;;;1999.90;999.90;;;;;;;22.20;82.02;98128.44;5078137;28;20073;-66
2021/08/23 01:52:02;;;;;;;1999.90;999.90;;;;;;;22.32;81.45;98130.78;5095585;28;20040;-66
2021/08/23 01:54:28;;;;;;;1999.90;999.90;;;;;;;22.28;81.82;98124.34;5094576;28;20101;-66
2021/08/23 01:56:55;;;;;;;1999.90;999.90;;;;;;;22.28;81.62;98127.16;5096157;28;20100;-66
2021/08/23 01:59:23;;;;;;;1999.90;999.90;;;;;;;22.27;82.19;98122.72;5094809;28;20109;-66
2021/08/23 02:01:50;;;;;;;1999.90;999.90;;;;;;;22.24;82.36;98117.91;5094179;28;20124;-66
2021/08/23 02:04:16;;;;;;;1999.90;999.90;;;;;;;22.09;83.69;98117.19;5095011;28;20055;-66
2021/08/23 02:06:43;;;;;;;1999.90;999.90;;;;;;;21.85;84.61;98108.44;5095790;28;20490;-66
2021/08/23 02:09:09;;;;;;;1999.90;999.90;;;;;;;22.02;84.23;98106.78;5094059;28;20105;-66
2021/08/23 02:11:36;;;;;;;1999.90;999.90;;;;;;;21.95;84.61;98112.44;5094032;28;20040;-66
2021/08/23 02:14:03;;;;;;;1999.90;999.90;;;;;;;22.12;84.24;98103.13;5077758;28;20075;-66
2021/08/23 02:16:29;;;;;;;1999.90;999.90;;;;;;;22.12;84.26;98105.09;5094729;28;20360;-66
2021/08/23 02:18:56;;;;;;;1999.90;999.90;;;;;;;22.04;84.62;98112.00;5094045;28;20135;-66
2021/08/23 02:21:22;;;;;;;1999.90;999.90;;;;;;;21.99;85.39;98107.59;5092883;28;20094;-66
2021/08/23 02:23:52;;;;;;;1999.90;999.90;;;;;;;21.72;87.25;98115.72;5094766;28;20399;-66
2021/08/23 02:26:19;;;;;;;1999.90;999.90;;;;;;;21.49;88.56;98110.53;5094335;28;20104;-66
2021/08/23 02:28:46;;;;;;;1999.90;999.90;;;;;;;21.44;89.14;98109.72;5094504;28;20384;-66
2021/08/23 02:31:13;;;;;;;1999.90;999.90;;;;;;;21.44;89.98;98106.91;5095239;28;20120;-66
2021/08/23 02:33:39;;;;;;;1999.90;999.90;;;;;;;21.58;89.55;98113.75;5093239;28;20185;-66
2021/08/23 02:36:06;;;;;;;1999.90;999.90;;;;;;;21.53;90.04;98105.72;5093375;28;20124;-66
2021/08/23 02:38:32;;;;;;;1999.90;999.90;;;;;;;21.70;89.47;98106.88;5093699;28;20048;-66
2021/08/23 02:40:59;;;;;;;1999.90;999.90;;;;;;;21.68;89.38;98098.84;5091845;28;20445;-66
2021/08/23 02:43:25;;;;;;;1999.90;999.90;;;;;;;21.53;90.20;98094.50;5093228;28;20067;-66
2021/08/23 02:45:52;;;;;;;1999.90;999.90;;;;;;;21.81;88.83;98102.81;5094259;28;20078;-66
2021/08/23 02:48:18;;;;;;;1999.90;999.90;;;;;;;21.65;89.75;98099.66;5097805;28;20043;-66
2021/08/23 02:50:45;;;;;;;1999.90;999.90;;;;;;;21.60;89.71;98094.44;5096990;28;20194;-66
2021/08/23 02:53:11;;;;;;;1999.90;999.90;;;;;;;21.68;89.62;98098.06;5093886;28;20113;-66
2021/08/23 02:55:38;;;;;;;1999.90;999.90;;;;;;;21.81;89.24;98108.47;5093067;28;20420;-66
2021/08/23 02:58:04;;;;;;;1999.90;999.90;;;;;;;21.87;89.11;98110.84;5092523;28;20052;-66
2021/08/23 03:00:31;;;;;;;1999.90;999.90;;;;;;;21.37;91.77;98117.38;5093739;28;20105;-66
2021/08/23 03:02:58;;;;;;;1999.90;999.90;;;;;;;21.12;93.34;98118.19;5094152;28;20508;-66
2021/08/23 03:05:24;;;;;;;1999.90;999.90;;;;;;;21.21;93.54;98112.16;5094256;28;20052;-66
2021/08/23 03:07:50;;;;;;;1999.90;999.90;;;;;;;21.40;92.59;98111.72;5092778;28;20075;-67
2021/08/23 03:10:18;;;;;;;1999.90;999.90;;;;;;;21.24;93.06;98112.19;5093253;28;20048;-67
2021/08/23 03:12:45;;;;;;;1999.90;999.90;;;;;;;21.33;92.98;98108.13;5094485;28;20495;-67
2021/08/23 03:15:11;;;;;;;1999.90;999.90;;;;;;;21.37;92.89;98112.53;5093214;28;20494;-67
2021/08/23 03:17:38;;;;;;;1999.90;999.90;;;;;;;21.76;90.93;98108.84;5092071;28;20044;-67
2021/08/23 03:20:05;;;;;;;1999.90;999.90;;;;;;;21.63;91.49;98113.31;5093899;28;20044;-67
2021/08/23 03:22:32;;;;;;;1999.90;999.90;;;;;;;21.75;90.83;98117.72;5093165;28;20044;-67
2021/08/23 03:24:59;;;;;;;1999.90;999.90;;;;;;;21.60;91.35;98122.56;5092943;28;20044;-67
2021/08/23 03:27:25;;;;;;;1999.90;999.90;;;;;;;21.66;91.01;98129.41;5094298;28;20395;-67
2021/08/23 03:29:53;;;;;;;1999.90;999.90;;;;;;;20.83;95.14;98121.00;5093081;28;20093;-67
2021/08/23 03:32:20;;;;;;;1999.90;999.90;;;;;;;20.72;96.87;98118.19;5092062;28;20048;-67
2021/08/23 03:34:48;;;;;;;1999.90;999.90;;;;;;;21.08;94.47;98112.59;5093562;28;20490;-67
2021/08/23 03:37:15;;;;;;;1999.90;999.90;;;;;;;21.07;94.50;98116.59;5094074;28;20076;-66
2021/08/23 03:39:41;;;;;;;1999.90;999.90;;;;;;;21.26;93.84;98115.38;5092615;28;20074;-67
2021/08/23 03:42:08;;;;;;;1999.90;999.90;;;;;;;21.39;92.93;98115.78;5092855;28;20097;-66
2021/08/23 03:44:35;;;;;;;1999.90;999.90;;;;;;;21.31;93.69;98108.53;5093706;28;20078;-67
2021/08/23 03:47:01;;;;;;;1999.90;999.90;;;;;;;20.91;95.39;98107.75;5091048;28;20433;-67
2021/08/23 03:49:28;;;;;;;1999.90;999.90;;;;;;;21.10;94.63;98115.00;5092109;28;20040;-67
2021/08/23 03:51:55;;;;;;;1999.90;999.90;;;;;;;21.34;93.68;98113.34;5090118;28;20073;-67
2021/08/23 03:54:21;;;;;;;1999.90;999.90;;;;;;;21.58;92.13;98113.75;5091441;28;20497;-67
2021/08/23 03:56:48;;;;;;;1999.90;999.90;;;;;;;21.46;92.45;98115.75;5089732;28;20048;-67
2021/08/23 03:59:14;;;;;;;1999.90;999.90;;;;;;;21.30;93.24;98123.81;5093388;28;20048;-67
2021/08/23 04:01:41;;;;;;;1999.90;999.90;;;;;;;21.42;92.24;98123.41;5090148;28;20102;-67
2021/08/23 04:04:07;;;;;;;1999.90;999.90;;;;;;;21.29;92.60;98131.44;5090959;28;20047;-67
2021/08/23 04:06:34;;;;;;;1999.90;999.90;;;;;;;21.09;93.76;98133.06;5088820;28;20395;-67
2021/08/23 04:09:01;;;;;;;1999.90;999.90;;;;;;;20.99;94.67;98134.66;5087312;28;20083;-67
2021/08/23 04:11:27;;;;;;;1999.90;999.90;;;;;;;20.73;95.89;98141.47;5084489;28;20085;-67
2021/08/23 04:13:54;;;;;;;1999.90;999.90;;;;;;;20.40;98.56;98140.56;5084648;28;20044;-66
2021/08/23 04:16:20;;;;;;;1999.90;999.90;;;;;;;20.41;98.44;98131.75;5088284;28;20113;-66
2021/08/23 04:18:47;;;;;;;1999.90;999.90;;;;;;;20.09;100.00;98133.63;5086145;28;20079;-67
2021/08/23 04:21:14;;;;;;;1999.90;999.90;;;;;;;20.38;99.44;98142.94;5087572;28;20077;-66
2021/08/23 04:23:41;;;;;;;1999.90;999.90;;;;;;;20.51;98.57;98146.19;5088472;28;20055;-66
2021/08/23 04:26:08;;;;;;;1999.90;999.90;;;;;;;20.43;99.03;98144.59;5087047;28;20071;-66
2021/08/23 04:28:35;;;;;;;1999.90;999.90;;;;;;;20.20;100.00;98148.50;5089051;28;20048;-66
2021/08/23 04:31:02;;;;;;;1999.90;999.90;;;;;;;20.12;100.00;98146.88;5087937;28;20079;-66
2021/08/23 04:33:28;;;;;;;1999.90;999.90;;;;;;;20.48;99.49;98158.22;5086540;28;20059;-66
2021/08/23 04:35:55;;;;;;;1999.90;999.90;;;;;;;20.57;98.98;98151.03;5088513;28;20494;-66
2021/08/23 04:38:22;;;;;;;1999.90;999.90;;;;;;;20.95;96.56;98153.53;5086391;28;20047;-66
2021/08/23 04:40:49;;;;;;;1999.90;999.90;;;;;;;20.74;97.23;98152.31;5087036;28;20097;-66
2021/08/23 04:43:16;;;;;;;1999.90;999.90;;;;;;;20.70;97.27;98145.06;5086951;28;20048;-66
2021/08/23 04:45:42;;;;;;;1999.90;999.90;;;;;;;20.83;97.00;98151.13;5087895;28;20105;-66
2021/08/23 04:48:09;;;;;;;1999.90;999.90;;;;;;;20.95;95.85;98164.78;5087106;28;20142;-66
2021/08/23 04:50:35;;;;;;;1999.90;999.90;;;;;;;20.62;97.67;98160.25;5086627;28;20055;-66
2021/08/23 04:53:02;;;;;;;1999.90;999.90;;;;;;;20.60;98.46;98166.28;5088097;28;20433;-66
2021/08/23 04:55:28;;;;;;;1999.90;999.90;;;;;;;20.57;98.68;98167.06;5089206;28;20044;-66
2021/08/23 04:57:55;;;;;;;1999.90;999.90;;;;;;;20.18;100.00;98188.19;5088224;28;20084;-67
2021/08/23 05:00:22;;;;;;;1999.90;999.90;;;;;;;19.80;100.00;98187.63;5088337;28;20047;-66
2021/08/23 05:02:48;;;;;;;1999.90;999.90;;;;;;;19.76;100.00;98203.56;5088528;28;20052;-66
2021/08/23 05:05:15;;;;;;;1999.90;999.90;;;;;;;19.61;100.00;98207.50;5088504;28;20152;-66
2021/08/23 05:07:41;;;;;;;1999.90;999.90;;;;;;;19.44;100.00;98211.75;5086871;28;20048;-67
2021/08/23 05:10:08;;;;;;;1999.90;999.90;;;;;;;19.39;100.00;98212.13;5086001;28;20048;-67
2021/08/23 05:12:35;;;;;;;1999.90;999.90;;;;;;;19.22;100.00;98206.00;5088088;28;20055;-67
2021/08/23 05:15:02;;;;;;;1999.90;999.90;;;;;;;19.19;100.00;98212.38;5085532;28;20075;-67
2021/08/23 05:17:28;;;;;;;1999.90;999.90;;;;;;;19.27;100.00;98219.63;5085922;28;20048;-67
2021/08/23 05:19:55;;;;;;;1999.90;999.90;;;;;;;19.35;100.00;98210.09;5087187;28;20357;-67
2021/08/23 05:22:22;;;;;;;1999.90;999.90;;;;;;;19.44;100.00;98214.56;5086866;28;20407;-67
2021/08/23 05:24:49;;;;;;;1999.90;999.90;;;;;;;19.44;100.00;98222.97;5086894;28;20511;-68
2021/08/23 05:27:16;;;;;;;1999.90;999.90;;;;;;;19.63;100.00;98211.50;5089080;28;20060;-67
2021/08/23 05:29:43;;;;;;;1999.90;999.90;;;;;;;19.90;100.00;98216.13;5088203;28;20392;-67
2021/08/23 05:32:10;;;;;;;1999.90;999.90;;;;;;;19.88;100.00;98211.69;5088237;28;20470;-67
2021/08/23 05:34:36;;;;;;;1999.90;999.90;;;;;;;19.70;100.00;98217.16;5088338;28;20048;-67
2021/08/23 05:37:03;;;;;;;1999.90;999.90;;;;;;;19.61;100.00;98219.50;5087480;28;20496;-67
2021/08/23 05:39:30;;;;;;;1999.90;999.90;;;;;;;19.65;100.00;98220.34;5086690;28;20097;-67
2021/08/23 05:41:56;;;;;;;1999.90;999.90;;;;;;;19.23;100.00;98226.41;5087029;28;20121;-67
2021/08/23 05:44:23;;;;;;;1999.90;999.90;;;;;;;19.50;100.00;98225.03;5088448;28;20395;-68
2021/08/23 05:46:49;;;;;;;1999.90;999.90;;;;;;;19.70;100.00;98222.78;5087159;28;20428;-68
2021/08/23 05:49:16;;;;;;;1999.90;999.90;;;;;;;19.44;100.00;98217.38;5087074;28;20042;-68
2021/08/23 05:51:43;;;;;;;1999.90;999.90;;;;;;;19.36;100.00;98222.13;5095750;28;20497;-68
2021/08/23 05:54:10;;;;;;;1999.90;999.90;;;;;;;19.45;100.00;98216.97;5086870;28;20109;-68
2021/08/23 05:56:40;;;;;;;1999.90;999.90;;;;;;;19.70;100.00;98213.56;5086000;28;20048;-68
2021/08/23 05:59:07;;;;;;;1999.90;999.90;;;;;;;19.90;100.00;98225.31;5088574;28;20047;-68
2021/08/23 06:01:34;;;;;;;1999.90;999.90;;;;;;;19.63;100.00;98216.31;5087358;28;20060;-68
2021/08/23 06:04:01;;;;;;;1999.90;999.90;;;;;;;19.95;100.00;98221.34;5087578;28;20063;-69
2021/08/23 06:06:28;;;;;;;1999.90;999.90;;;;;;;19.80;100.00;98220.44;5087986;28;20090;-69
2021/08/23 06:08:55;;;;;;;1999.90;999.90;;;;;;;19.62;100.00;98220.31;5088217;28;20097;-69
2021/08/23 06:11:21;;;;;;;1999.90;999.90;;;;;;;19.69;100.00;98221.19;5087071;28;20058;-69
2021/08/23 06:13:48;;;;;;;1999.90;999.90;;;;;;;19.77;100.00;98226.81;5087904;28;20140;-69
2021/08/23 06:16:15;;;;;;;1999.90;999.90;;;;;;;19.76;100.00;98231.63;5092060;28;20055;-70
2021/08/23 06:18:41;;;;;;;1999.90;999.90;;;;;;;19.76;100.00;98228.81;5090987;28;20533;-69
2021/08/23 06:21:11;;;;;;;1999.90;999.90;;;;;;;19.90;100.00;98225.31;5090505;28;20112;-68
2021/08/23 06:23:38;;;;;;;1999.90;999.90;;;;;;;19.96;100.00;98234.97;5091931;28;20176;-68
2021/08/23 06:26:04;;;;;;;1999.90;999.90;;;;;;;19.89;100.00;98229.34;5093527;28;20144;-68
2021/08/23 06:28:31;;;;;;;1999.90;999.90;;;;;;;20.02;100.00;98236.25;5090932;28;20509;-68
2021/08/23 06:30:57;;;;;;;1999.90;999.90;;;;;;;19.73;100.00;98248.44;5091520;28;20052;-68
2021/08/23 06:33:24;;;;;;;1999.90;999.90;;;;;;;19.57;100.00;98246.72;5091587;28;20167;-68
2021/08/23 06:35:51;;;;;;;1999.90;999.90;;;;;;;19.53;100.00;98245.88;5090668;28;20326;-68
2021/08/23 06:38:17;;;;;;;1999.90;999.90;;;;;;;19.75;100.00;98246.84;5090975;28;20051;-68
2021/08/23 06:40:44;;;;;;;1999.90;999.90;;;;;;;19.73;100.00;98248.44;5090475;28;20378;-68
2021/08/23 06:43:10;;;;;;;1999.90;999.90;;;;;;;19.63;100.00;98245.16;5091074;28;20055;-68
2021/08/23 06:45:37;;;;;;;1999.90;999.90;;;;;;;19.56;100.00;98252.72;5090824;28;20108;-68
2021/08/23 06:48:04;;;;;;;1999.90;999.90;;;;;;;19.33;100.00;98253.72;5090433;28;20048;-68
2021/08/23 06:50:30;;;;;;;1999.90;999.90;;;;;;;19.27;100.00;98250.47;5090263;28;20048;-68
2021/08/23 06:52:57;;;;;;;1999.90;999.90;;;;;;;19.13;100.00;98250.31;5089728;28;20093;-68
2021/08/23 06:55:24;;;;;;;1999.90;999.90;;;;;;;19.44;100.00;98253.81;5090584;28;20051;-68
2021/08/23 06:57:50;;;;;;;1999.90;999.90;;;;;;;19.18;100.00;98247.19;5091488;28;20117;-67
2021/08/23 07:00:17;;;;;;;1999.90;999.90;;;;;;;19.42;100.00;98248.59;5089441;28;20149;-68
2021/08/23 07:02:44;;;;;;;1999.90;999.90;;;;;;;19.51;100.00;98251.88;5095117;28;20056;-68
2021/08/23 07:05:11;;;;;;;1999.90;999.90;;;;;;;19.67;100.00;98246.00;5091535;28;20113;-68
2021/08/23 07:07:38;;;;;;;1999.90;999.90;;;;;;;19.52;100.00;98238.69;5088961;28;20056;-68
2021/08/23 07:10:08;;;;;;;1999.90;999.90;;;;;;;19.55;100.00;98243.50;5089906;28;20099;-68
2021/08/23 07:12:35;;;;;;;1999.90;999.90;;;;;;;19.47;100.00;98244.63;5090593;28;20054;-68
2021/08/23 07:15:02;;;;;;;1999.90;999.90;;;;;;;19.53;100.00;98243.06;5123236;27;20437;-68
2021/08/23 07:17:28;;;;;;;1999.90;999.90;;;;;;;19.34;100.00;98235.72;5089211;28;20319;-68
2021/08/23 07:19:55;;;;;;;1999.90;999.90;;;;;;;19.33;100.00;98234.09;5089872;28;20040;-67
2021/08/23 07:22:22;;;;;;;1999.90;999.90;;;;;;;19.60;100.00;98234.72;5090939;28;20083;-68
2021/08/23 07:24:50;;;;;;;1999.90;999.90;;;;;;;19.39;100.00;98242.97;5089681;28;20055;-68
2021/08/23 07:27:16;;;;;;;1999.90;999.90;;;;;;;19.53;100.00;98240.25;5089535;28;20494;-68
2021/08/23 07:29:43;;;;;;;1999.90;999.90;;;;;;;19.44;100.00;98248.19;5089356;28;20055;-67
2021/08/23 07:32:11;;;;;;;1999.90;999.90;;;;;;;19.41;100.00;98252.59;5089359;28;20053;-67
2021/08/23 07:34:38;;;;;;;1999.90;999.90;;;;;;;19.60;100.00;98245.94;5089445;28;20464;-68
2021/08/23 07:37:05;;;;;;;1999.90;999.90;;;;;;;19.23;100.00;98244.00;5090238;28;20391;-67
2021/08/23 07:39:32;;;;;;;1999.90;999.90;;;;;;;19.54;100.00;98245.47;5089597;28;20101;-67
2021/08/23 07:41:58;;;;;;;1999.90;999.90;;;;;;;19.74;100.00;98247.22;5088950;28;20133;-67
2021/08/23 07:44:25;;;;;;;1999.90;999.90;;;;;;;20.03;100.00;98240.63;5089880;28;20341;-67
2021/08/23 07:46:51;;;;;;;1999.90;999.90;;;;;;;19.69;100.00;98238.00;5089865;28;20044;-67
2021/08/23 07:49:18;;;;;;;1999.90;999.90;;;;;;;19.80;100.00;98240.09;5089016;28;20055;-67
2021/08/23 07:51:45;;;;;;;1999.90;999.90;;;;;;;19.94;100.00;98253.44;5089820;28;20079;-67
2021/08/23 07:54:15;;;;;;;1999.90;999.90;;;;;;;20.10;100.00;98244.69;5090920;28;20056;-67
2021/08/23 07:56:41;;;;;;;1999.90;999.90;;;;;;;20.31;100.00;98246.81;5089921;28;20410;-67
2021/08/23 07:59:08;;;;;;;1999.90;999.90;;;;;;;20.01;100.00;98248.66;5092201;28;20132;-67
2021/08/23 08:01:34;;;;;;;1999.90;999.90;;;;;;;19.63;100.00;98249.97;5089607;28;20290;-67
2021/08/23 08:04:01;;;;;;;1999.90;999.90;;;;;;;19.85;100.00;98248.16;5089889;28;20121;-67
2021/08/23 08:06:28;;;;;;;1999.90;999.90;;;;;;;20.18;100.00;98241.53;5089329;28;20133;-67
2021/08/23 08:08:54;;;;;;;1999.90;999.90;;;;;;;20.03;100.00;98237.84;5089187;28;20048;-68
2021/08/23 08:11:21;;;;;;;1999.90;999.90;;;;;;;19.86;100.00;98242.16;5089823;28;20051;-68
2021/08/23 08:13:48;;;;;;;1999.90;999.90;;;;;;;19.94;100.00;98242.22;5088774;28;20060;-68
2021/08/23 08:16:14;;;;;;;1999.90;999.90;;;;;;;19.79;100.00;98244.13;5089306;28;20051;-68
2021/08/23 08:18:41;;;;;;;1999.90;999.90;;;;;;;19.99;100.00;98251.06;5089967;28;20093;-68
2021/08/23 08:21:08;;;;;;;1999.90;999.90;;;;;;;19.76;100.00;98247.66;5088861;28;20501;-67
2021/08/23 08:23:34;;;;;;;1999.90;999.90;;;;;;;19.88;100.00;98242.56;5088447;28;20101;-68
2021/08/23 08:26:01;;;;;;;1999.90;999.90;;;;;;;20.30;100.00;98229.16;5089460;28;20052;-68
2021/08/23 08:28:28;;;;;;;1999.90;999.90;;;;;;;20.30;100.00;98220.72;5089588;28;20298;-68
2021/08/23 08:30:55;;;;;;;1999.90;999.90;;;;;;;20.69;100.00;98208.06;5088053;28;20417;-68
2021/08/23 08:33:21;;;;;;;1999.90;999.90;;;;;;;21.01;99.30;98225.00;5089466;28;20082;-67
2021/08/23 08:35:48;;;;;;;1999.90;999.90;;;;;;;20.43;100.00;98217.59;5089827;28;20125;-68
2021/08/23 08:38:14;;;;;;;1999.90;999.90;;;;;;;20.58;100.00;98220.03;5087920;28;20092;-68
2021/08/23 08:40:41;;;;;;;1999.90;999.90;;;;;;;20.11;100.00;98224.66;5088353;28;20135;-68
2021/08/23 08:43:09;;;;;;;1999.90;999.90;;;;;;;20.36;100.00;98230.38;5089638;28;20533;-68
2021/08/23 08:45:35;;;;;;;1999.90;999.90;;;;;;;20.50;100.00;98228.84;5088402;28;20056;-67
2021/08/23 08:48:03;;;;;;;1999.90;999.90;;;;;;;20.33;100.00;98230.38;5089439;28;20048;-68
2021/08/23 08:50:30;;;;;;;1999.90;999.90;;;;;;;20.15;100.00;98228.28;5071207;28;20053;-68
2021/08/23 08:52:57;;;;;;;1999.90;999.90;;;;;;;20.36;100.00;98230.38;5088874;28;20109;-68
2021/08/23 08:55:24;;;;;;;1999.90;999.90;;;;;;;20.46;99.79;98234.44;5088266;28;20105;-68
2021/08/23 08:57:50;;;;;;;1999.90;999.90;;;;;;;20.17;100.00;98230.69;5089112;28;20048;-68
2021/08/23 09:00:18;;;;;;;1999.90;999.90;;;;;;;20.24;100.00;98227.94;5089187;28;20048;-68
2021/08/23 09:02:59;;;;;;;1999.90;999.90;;;;;;;20.08;100.00;98235.88;5087957;28;20059;-68
2021/08/23 09:05:36;;;;;;;1999.90;999.90;;;;;;;20.01;100.00;98233.84;5088545;28;20342;-68
2021/08/23 09:08:04;;;;;;;1999.90;999.90;;;;;;;20.08;100.00;98231.03;5089383;28;20105;-68
2021/08/23 09:10:31;;;;;;;1999.90;999.90;;;;;;;20.50;100.00;98217.59;5088702;28;20051;-68
2021/08/23 09:12:59;;;;;;;1999.90;999.90;;;;;;;20.52;99.47;98232.06;5088255;28;20076;-68
2021/08/23 09:15:27;;;;;;;1999.90;999.90;;;;;;;20.35;99.57;98226.00;5088719;28;20453;-69
2021/08/23 09:18:07;;;;;;;1999.90;999.90;;;;;;;19.66;100.00;98233.16;5089338;28;20070;-68
2021/08/23 09:20:36;;;;;;;1999.90;999.90;;;;;;;20.12;100.00;98226.25;5088256;28;20048;-68
2021/08/23 09:23:13;;;;;;;1999.90;999.90;;;;;;;20.01;100.00;98225.41;5088412;28;20052;-68
2021/08/23 09:25:45;;;;;;;1999.90;999.90;;;;;;;20.03;100.00;98225.81;5082504;28;20523;-68
2021/08/23 09:28:12;;;;;;;1999.90;999.90;;;;;;;20.20;100.00;98224.28;5087531;28;20098;-69
2021/08/23 09:30:39;;;;;;;1999.90;999.90;;;;;;;20.46;100.00;98219.63;5087781;28;20121;-69
2021/08/23 09:33:06;;;;;;;1999.90;999.90;;;;;;;20.12;100.00;98225.47;5088604;28;20048;-68
2021/08/23 09:35:35;;;;;;;1999.90;999.90;;;;;;;19.92;100.00;98236.97;5089733;28;20052;-69
2021/08/23 09:38:07;;;;;;;1999.90;999.90;;;;;;;20.12;100.00;98225.47;5088058;28;20440;-69
2021/08/23 09:40:33;;;;;;;1999.90;999.90;;;;;;;19.94;100.00;98231.78;5087347;28;20055;-68
2021/08/23 09:43:09;;;;;;;1999.90;999.90;;;;;;;19.90;100.00;98235.75;5084861;28;20188;-69
2021/08/23 09:45:35;;;;;;;1999.90;999.90;;;;;;;19.72;100.00;98236.41;5087447;28;20052;-68
2021/08/23 09:48:04;;;;;;;1999.90;999.90;;;;;;;19.95;100.00;98236.19;5087597;28;20048;-69
2021/08/23 09:50:48;;;;;;;1999.90;999.90;;;;;;;19.82;100.00;98240.53;5091809;28;20113;-68
2021/08/23 09:53:17;;;;;;;1999.90;999.90;;;;;;;20.05;100.00;98235.47;5091439;28;20429;-69
2021/08/23 09:55:46;;;;;;;1999.90;999.90;;;;;;;20.50;100.00;98240.06;5092002;28;20094;-69
2021/08/23 09:58:13;;;;;;;1999.90;999.90;;;;;;;20.66;100.00;98236.94;5091499;28;20044;-70
2021/08/23 10:00:41;;;;;;;1999.90;999.90;;;;;;;20.56;100.00;98235.69;5091280;28;20050;-69
2021/08/23 10:03:14;;;;;;;1999.90;999.90;;;;;;;19.97;100.00;98231.00;5092356;28;20083;-69
2021/08/23 10:05:47;;;;;;;1999.90;999.90;;;;;;;20.44;100.00;98227.59;5090732;28;20448;-69
2021/08/23 10:08:26;;;;;;;1999.90;999.90;;;;;;;20.13;100.00;98227.88;5091700;28;20047;-68
2021/08/23 10:10:53;;;;;;;1999.90;999.90;;;;;;;20.58;100.00;98224.88;5090922;28;20094;-69
2021/08/23 10:13:20;;;;;;;1999.90;999.90;;;;;;;20.48;100.00;98222.81;5090818;28;20465;-69
2021/08/23 10:15:46;;;;;;;1999.90;999.90;;;;;;;21.22;98.22;98217.81;5092025;28;20048;-69
2021/08/23 10:18:15;;;;;;;1999.90;999.90;;;;;;;21.96;96.92;98221.78;5092815;28;20060;-69
2021/08/23 10:20:42;;;;;;;1999.90;999.90;;;;;;;22.13;94.90;98224.97;5090967;28;20426;-69
2021/08/23 10:23:09;;;;;;;1999.90;999.90;;;;;;;22.25;93.07;98220.91;5091040;28;20474;-69
2021/08/23 10:25:36;;;;;;;1999.90;999.90;;;;;;;22.11;93.30;98208.47;5091721;28;20052;-69
2021/08/23 10:28:12;;;;;;;1999.90;999.90;;;;;;;22.71;87.54;98225.56;5092868;28;20059;-70
2021/08/23 10:30:39;;;;;;;1999.90;999.90;;;;;;;22.84;89.10;98217.47;5090942;28;20052;-69
2021/08/23 10:33:19;;;;;;;1999.90;999.90;;;;;;;23.43;85.87;98219.47;5091196;28;20048;-69
2021/08/23 10:35:52;;;;;;;1999.90;999.90;;;;;;;23.18;83.72;98225.31;5091718;28;20051;-69
2021/08/23 10:38:24;;;;;;;1999.90;999.90;;;;;;;23.50;84.39;98221.44;5091920;28;20380;-69
2021/08/23 10:41:06;;;;;;;1999.90;999.90;;;;;;;23.81;81.51;98215.94;5090268;28;20052;-68
2021/08/23 10:43:49;;;;;;;1999.90;999.90;;;;;;;23.74;81.90;98222.44;5091033;28;20113;-69
2021/08/23 10:46:36;;;;;;;1999.90;999.90;;;;;;;24.05;80.79;98225.38;5077500;28;20055;-68
2021/08/23 10:49:13;;;;;;;1999.90;999.90;;;;;;;24.30;79.89;98213.00;5092274;28;20059;-68
2021/08/23 10:51:43;;;;;;;1999.90;999.90;;;;;;;24.34;81.44;98203.28;5090969;28;20074;-68